sensor_id;sensor_type;location;lat;lon;timestamp;pressure;altitude;pressure_sealevel;temperature;humidity
40245;BME280;25963;42.694;23.600;2022-09-03T00:01:23;95128.56;;;18.14;100.00
40245;BME280;25963;42.694;23.600;2022-09-03T00:03:58;95129.34;;;18.04;100.00
40245;BME280;25963;42.694;23.600;2022-09-03T00:06:50;95130.69;;;18.01;100.00
40245;BME280;25963;42.694;23.600;2022-09-03T00:09:42;95135.72;;;18.03;100.00
40245;BME280;25963;42.694;23.600;2022-09-03T00:12:15;95126.94;;;18.02;100.00
40245;BME280;25963;42.694;23.600;2022-09-03T00:14:50;95132.03;;;18.14;100.00
40245;BME280;25963;42.694;23.600;2022-09-03T00:17:37;95146.94;;;18.00;100.00
40245;BME280;25963;42.694;23.600;2022-09-03T00:20:11;95145.34;;;18.09;100.00
40245;BME280;25963;42.694;23.600;2022-09-03T00:22:41;95142.69;;;18.14;100.00
40245;BME280;25963;42.694;23.600;2022-09-03T00:25:13;95144.59;;;18.19;100.00
40245;BME280;25963;42.694;23.600;2022-09-03T00:27:42;95149.09;;;18.08;100.00
40245;BME280;25963;42.694;23.600;2022-09-03T00:30:12;95149.34;;;18.07;100.00
40245;BME280;25963;42.694;23.600;2022-09-03T00:32:42;95150.13;;;17.87;100.00
40245;BME280;25963;42.694;23.600;2022-09-03T00:35:19;95152.28;;;18.00;100.00
40245;BME280;25963;42.694;23.600;2022-09-03T00:37:50;95147.44;;;17.92;100.00
40245;BME280;25963;42.694;23.600;2022-09-03T00:54:26;95143.47;;;17.94;100.00
40245;BME280;25963;42.694;23.600;2022-09-03T00:57:12;95146.94;;;18.00;100.00
40245;BME280;25963;42.694;23.600;2022-09-03T01:00:00;95144.81;;;17.97;100.00
40245;BME280;25963;42.694;23.600;2022-09-03T01:13:22;95152.28;;;18.00;100.00
40245;BME280;25963;42.694;23.600;2022-09-03T01:18:44;95152.25;;;17.85;100.00
40245;BME280;25963;42.694;23.600;2022-09-03T01:21:36;95142.09;;;17.82;100.00
40245;BME280;25963;42.694;23.600;2022-09-03T01:30:13;95138.38;;;17.77;100.00
40245;BME280;25963;42.694;23.600;2022-09-03T01:35:43;95144.69;;;17.66;100.00
40245;BME280;25963;42.694;23.600;2022-09-03T01:38:24;95150.88;;;17.77;100.00
40245;BME280;25963;42.694;23.600;2022-09-03T01:44:30;95159.72;;;17.88;100.00
40245;BME280;25963;42.694;23.600;2022-09-03T01:50:17;95160.50;;;17.78;100.00
40245;BME280;25963;42.694;23.600;2022-09-03T01:57:52;95175.19;;;17.81;100.00
40245;BME280;25963;42.694;23.600;2022-09-03T02:00:20;95180.97;;;17.67;100.00
40245;BME280;25963;42.694;23.600;2022-09-03T02:02:48;95179.47;;;17.29;100.00
40245;BME280;25963;42.694;23.600;2022-09-03T02:05:19;95172.06;;;17.46;100.00
40245;BME280;25963;42.694;23.600;2022-09-03T02:07:47;95171.88;;;17.53;100.00
40245;BME280;25963;42.694;23.600;2022-09-03T02:10:19;95167.06;;;17.55;100.00
40245;BME280;25963;42.694;23.600;2022-09-03T02:12:50;95169.75;;;17.60;100.00
40245;BME280;25963;42.694;23.600;2022-09-03T02:15:20;95169.38;;;17.36;100.00
40245;BME280;25963;42.694;23.600;2022-09-03T02:17:47;95159.75;;;17.30;100.00
40245;BME280;25963;42.694;23.600;2022-09-03T02:20:23;95156.78;;;17.21;100.00
40245;BME280;25963;42.694;23.600;2022-09-03T02:22:51;95160.59;;;17.36;100.00
40245;BME280;25963;42.694;23.600;2022-09-03T02:25:20;95166.00;;;17.61;100.00
40245;BME280;25963;42.694;23.600;2022-09-03T02:27:48;95162.66;;;17.28;100.00
40245;BME280;25963;42.694;23.600;2022-09-03T02:30:15;95165.88;;;17.30;100.00
40245;BME280;25963;42.694;23.600;2022-09-03T02:32:42;95167.53;;;17.47;100.00
40245;BME280;25963;42.694;23.600;2022-09-03T02:35:08;95169.19;;;17.53;100.00
40245;BME280;25963;42.694;23.600;2022-09-03T02:37:34;95172.34;;;17.45;100.00
40245;BME280;25963;42.694;23.600;2022-09-03T02:39:59;95168.91;;;17.54;100.00
40245;BME280;25963;42.694;23.600;2022-09-03T02:42:26;95183.53;;;17.42;100.00
40245;BME280;25963;42.694;23.600;2022-09-03T02:44:56;95179.25;;;17.36;100.00
40245;BME280;25963;42.694;23.600;2022-09-03T02:47:29;95177.09;;;17.38;100.00
40245;BME280;25963;42.694;23.600;2022-09-03T02:49:56;95182.94;;;17.34;100.00
40245;BME280;25963;42.694;23.600;2022-09-03T02:52:21;95182.63;;;17.21;100.00
40245;BME280;25963;42.694;23.600;2022-09-03T02:54:47;95192.28;;;17.32;100.00
40245;BME280;25963;42.694;23.600;2022-09-03T02:57:14;95182.19;;;17.39;100.00
40245;BME280;25963;42.694;23.600;2022-09-03T02:59:40;95177.41;;;17.41;100.00
40245;BME280;25963;42.694;23.600;2022-09-03T03:02:08;95186.22;;;17.42;100.00
40245;BME280;25963;42.694;23.600;2022-09-03T03:04:33;95187.81;;;17.43;100.00
40245;BME280;25963;42.694;23.600;2022-09-03T03:06:59;95192.59;;;17.41;100.00
40245;BME280;25963;42.694;23.600;2022-09-03T03:09:24;95200.03;;;17.33;100.00
40245;BME280;25963;42.694;23.600;2022-09-03T03:11:51;95186.41;;;17.30;100.00
40245;BME280;25963;42.694;23.600;2022-09-03T03:14:19;95201.59;;;17.29;100.00
40245;BME280;25963;42.694;23.600;2022-09-03T03:16:45;95200.78;;;17.29;100.00
40245;BME280;25963;42.694;23.600;2022-09-03T03:19:10;95194.44;;;17.35;100.00
40245;BME280;25963;42.694;23.600;2022-09-03T03:21:36;95204.03;;;17.36;100.00
40245;BME280;25963;42.694;23.600;2022-09-03T03:24:02;95205.16;;;17.45;100.00
40245;BME280;25963;42.694;23.600;2022-09-03T03:26:28;95194.22;;;17.47;100.00
40245;BME280;25963;42.694;23.600;2022-09-03T03:28:58;95188.03;;;17.36;100.00
40245;BME280;25963;42.694;23.600;2022-09-03T03:31:24;95190.72;;;17.36;100.00
40245;BME280;25963;42.694;23.600;2022-09-03T03:33:55;95184.47;;;17.15;100.00
40245;BME280;25963;42.694;23.600;2022-09-03T03:36:22;95175.44;;;17.21;100.00
40245;BME280;25963;42.694;23.600;2022-09-03T03:38:48;95172.81;;;17.31;100.00
40245;BME280;25963;42.694;23.600;2022-09-03T03:41:16;95179.19;;;17.25;100.00
40245;BME280;25963;42.694;23.600;2022-09-03T03:43:42;95184.06;;;17.39;100.00
40245;BME280;25963;42.694;23.600;2022-09-03T03:46:08;95189.34;;;17.33;100.00
40245;BME280;25963;42.694;23.600;2022-09-03T03:48:35;95187.16;;;17.25;100.00
40245;BME280;25963;42.694;23.600;2022-09-03T03:51:05;95188.28;;;17.34;100.00
40245;BME280;25963;42.694;23.600;2022-09-03T03:53:36;95191.50;;;17.37;100.00
40245;BME280;25963;42.694;23.600;2022-09-03T03:56:04;95193.63;;;17.29;100.00
40245;BME280;25963;42.694;23.600;2022-09-03T03:58:32;95193.38;;;16.94;100.00
40245;BME280;25963;42.694;23.600;2022-09-03T04:03:35;95180.19;;;17.14;100.00
40245;BME280;25963;42.694;23.600;2022-09-03T04:06:00;95188.06;;;16.99;100.00
40245;BME280;25963;42.694;23.600;2022-09-03T04:08:27;95194.31;;;17.15;100.00
40245;BME280;25963;42.694;23.600;2022-09-03T04:10:53;95197.31;;;17.23;100.00
40245;BME280;25963;42.694;23.600;2022-09-03T04:13:19;95190.94;;;17.29;100.00
40245;BME280;25963;42.694;23.600;2022-09-03T04:15:44;95197.34;;;17.33;100.00
40245;BME280;25963;42.694;23.600;2022-09-03T04:18:10;95197.91;;;17.36;100.00
40245;BME280;25963;42.694;23.600;2022-09-03T04:20:35;95199.53;;;17.42;100.00
40245;BME280;25963;42.694;23.600;2022-09-03T04:23:03;95204.59;;;17.43;100.00
40245;BME280;25963;42.694;23.600;2022-09-03T04:25:29;95201.41;;;17.46;100.00
40245;BME280;25963;42.694;23.600;2022-09-03T04:27:54;95205.47;;;17.54;100.00
40245;BME280;25963;42.694;23.600;2022-09-03T04:30:20;95205.44;;;17.49;100.00
40245;BME280;25963;42.694;23.600;2022-09-03T04:32:48;95202.53;;;17.55;100.00
40245;BME280;25963;42.694;23.600;2022-09-03T04:35:18;95205.72;;;17.52;100.00
40245;BME280;25963;42.694;23.600;2022-09-03T04:37:45;95196.16;;;17.62;100.00
40245;BME280;25963;42.694;23.600;2022-09-03T04:40:11;95200.72;;;17.66;100.00
40245;BME280;25963;42.694;23.600;2022-09-03T04:42:36;95194.81;;;17.64;100.00
40245;BME280;25963;42.694;23.600;2022-09-03T04:45:02;95205.56;;;17.74;100.00
40245;BME280;25963;42.694;23.600;2022-09-03T04:47:30;95218.88;;;17.69;100.00
40245;BME280;25963;42.694;23.600;2022-09-03T04:49:55;95216.75;;;17.71;100.00
40245;BME280;25963;42.694;23.600;2022-09-03T04:52:21;95225.28;;;17.68;100.00
40245;BME280;25963;42.694;23.600;2022-09-03T04:54:46;95227.41;;;17.71;100.00
40245;BME280;25963;42.694;23.600;2022-09-03T04:57:12;95228.47;;;17.65;100.00
40245;BME280;25963;42.694;23.600;2022-09-03T04:59:38;95228.47;;;17.65;100.00
40245;BME280;25963;42.694;23.600;2022-09-03T05:02:06;95227.59;;;17.54;100.00
40245;BME280;25963;42.694;23.600;2022-09-03T05:04:34;95233.69;;;17.50;100.00
40245;BME280;25963;42.694;23.600;2022-09-03T05:06:59;95232.63;;;17.46;100.00
40245;BME280;25963;42.694;23.600;2022-09-03T05:09:24;95241.41;;;17.46;100.00
40245;BME280;25963;42.694;23.600;2022-09-03T05:11:50;95238.47;;;17.43;100.00
40245;BME280;25963;42.694;23.600;2022-09-03T05:14:15;95241.03;;;17.27;100.00
40245;BME280;25963;42.694;23.600;2022-09-03T05:16:41;95249.59;;;17.34;100.00
40245;BME280;25963;42.694;23.600;2022-09-03T05:19:06;95246.50;;;17.48;100.00
40245;BME280;25963;42.694;23.600;2022-09-03T05:21:33;95251.56;;;17.44;100.00
40245;BME280;25963;42.694;23.600;2022-09-03T05:24:00;95253.69;;;17.47;100.00
40245;BME280;25963;42.694;23.600;2022-09-03T05:26:29;95252.28;;;17.34;100.00
40245;BME280;25963;42.694;23.600;2022-09-03T05:29:00;95251.72;;;17.27;100.00
40245;BME280;25963;42.694;23.600;2022-09-03T05:31:28;95256.28;;;17.37;100.00
40245;BME280;25963;42.694;23.600;2022-09-03T05:33:57;95245.63;;;17.37;100.00
40245;BME280;25963;42.694;23.600;2022-09-03T05:36:25;95252.25;;;17.29;100.00
40245;BME280;25963;42.694;23.600;2022-09-03T05:38:51;95268.78;;;17.31;100.00
40245;BME280;25963;42.694;23.600;2022-09-03T05:41:19;95268.81;;;17.37;100.00
40245;BME280;25963;42.694;23.600;2022-09-03T05:43:47;95270.94;;;17.29;100.00
40245;BME280;25963;42.694;23.600;2022-09-03T05:46:20;95269.25;;;17.18;100.00
40245;BME280;25963;42.694;23.600;2022-09-03T05:48:46;95274.09;;;17.26;100.00
40245;BME280;25963;42.694;23.600;2022-09-03T05:51:15;95274.56;;;17.18;100.00
40245;BME280;25963;42.694;23.600;2022-09-03T05:53:43;95275.94;;;17.26;100.00
40245;BME280;25963;42.694;23.600;2022-09-03T05:56:14;95278.41;;;17.32;100.00
40245;BME280;25963;42.694;23.600;2022-09-03T05:58:42;95281.22;;;17.53;100.00
40245;BME280;25963;42.694;23.600;2022-09-03T06:01:13;95281.97;;;17.48;100.00
40245;BME280;25963;42.694;23.600;2022-09-03T06:03:40;95284.81;;;17.37;100.00
40245;BME280;25963;42.694;23.600;2022-09-03T06:06:06;95288.56;;;17.36;100.00
40245;BME280;25963;42.694;23.600;2022-09-03T06:08:33;95286.91;;;17.29;100.00
40245;BME280;25963;42.694;23.600;2022-09-03T06:11:01;95294.75;;;17.46;100.00
40245;BME280;25963;42.694;23.600;2022-09-03T06:13:31;95286.81;;;17.56;100.00
40245;BME280;25963;42.694;23.600;2022-09-03T06:16:04;95280.75;;;17.66;100.00
40245;BME280;25963;42.694;23.600;2022-09-03T06:18:31;95283.41;;;17.66;100.00
40245;BME280;25963;42.694;23.600;2022-09-03T06:20:59;95276.28;;;17.77;100.00
40245;BME280;25963;42.694;23.600;2022-09-03T06:23:25;95274.94;;;17.79;100.00
40245;BME280;25963;42.694;23.600;2022-09-03T06:26:08;95274.47;;;17.88;100.00
40245;BME280;25963;42.694;23.600;2022-09-03T06:28:36;95279.28;;;17.91;100.00
40245;BME280;25963;42.694;23.600;2022-09-03T06:31:04;95280.88;;;17.87;100.00
40245;BME280;25963;42.694;23.600;2022-09-03T06:33:32;95288.44;;;18.05;100.00
40245;BME280;25963;42.694;23.600;2022-09-03T06:36:00;95276.84;;;17.84;100.00
40245;BME280;25963;42.694;23.600;2022-09-03T06:38:29;95278.22;;;17.92;100.00
40245;BME280;25963;42.694;23.600;2022-09-03T06:41:03;95287.88;;;17.98;100.00
40245;BME280;25963;42.694;23.600;2022-09-03T06:43:32;95281.44;;;17.94;100.00
40245;BME280;25963;42.694;23.600;2022-09-03T06:46:03;95268.94;;;18.10;100.00
40245;BME280;25963;42.694;23.600;2022-09-03T06:48:30;95286.34;;;18.17;100.00
40245;BME280;25963;42.694;23.600;2022-09-03T06:50:58;95292.13;;;17.99;100.00
40245;BME280;25963;42.694;23.600;2022-09-03T06:53:29;95291.13;;;18.10;100.00
40245;BME280;25963;42.694;23.600;2022-09-03T06:56:00;95286.06;;;18.24;100.00
40245;BME280;25963;42.694;23.600;2022-09-03T06:58:33;95280.78;;;18.34;100.00
40245;BME280;25963;42.694;23.600;2022-09-03T07:01:04;95277.34;;;18.49;100.00
40245;BME280;25963;42.694;23.600;2022-09-03T07:03:31;95278.63;;;18.26;100.00
40245;BME280;25963;42.694;23.600;2022-09-03T07:06:05;95279.47;;;18.47;100.00
40245;BME280;25963;42.694;23.600;2022-09-03T07:08:32;95290.72;;;18.59;100.00
40245;BME280;25963;42.694;23.600;2022-09-03T07:10:59;95289.13;;;18.68;100.00
40245;BME280;25963;42.694;23.600;2022-09-03T07:13:28;95290.78;;;18.75;100.00
40245;BME280;25963;42.694;23.600;2022-09-03T07:16:04;95286.25;;;18.85;100.00
40245;BME280;25963;42.694;23.600;2022-09-03T07:18:31;95302.81;;;18.82;100.00
40245;BME280;25963;42.694;23.600;2022-09-03T07:21:07;95294.28;;;18.85;100.00
40245;BME280;25963;42.694;23.600;2022-09-03T07:23:34;95303.88;;;18.86;100.00
40245;BME280;25963;42.694;23.600;2022-09-03T07:26:04;95309.25;;;18.91;100.00
40245;BME280;25963;42.694;23.600;2022-09-03T07:28:30;95310.59;;;18.94;100.00
40245;BME280;25963;42.694;23.600;2022-09-03T07:31:19;95311.63;;;19.08;100.00
40245;BME280;25963;42.694;23.600;2022-09-03T07:33:49;95306.28;;;18.98;100.00
40245;BME280;25963;42.694;23.600;2022-09-03T07:36:15;95306.31;;;19.03;100.00
40245;BME280;25963;42.694;23.600;2022-09-03T07:38:43;95305.75;;;19.01;100.00
40245;BME280;25963;42.694;23.600;2022-09-03T07:41:10;95311.09;;;18.96;100.00
40245;BME280;25963;42.694;23.600;2022-09-03T07:43:40;95319.63;;;18.73;100.00
40245;BME280;25963;42.694;23.600;2022-09-03T07:46:16;95329.81;;;19.01;100.00
40245;BME280;25963;42.694;23.600;2022-09-03T07:48:51;95327.41;;;18.95;100.00
40245;BME280;25963;42.694;23.600;2022-09-03T07:51:18;95332.50;;;19.16;100.00
40245;BME280;25963;42.694;23.600;2022-09-03T07:53:45;95335.69;;;18.98;100.00
40245;BME280;25963;42.694;23.600;2022-09-03T07:56:11;95337.34;;;19.14;100.00
40245;BME280;25963;42.694;23.600;2022-09-03T07:58:38;95333.59;;;19.31;100.00
40245;BME280;25963;42.694;23.600;2022-09-03T08:01:07;95328.75;;;19.53;100.00
40245;BME280;25963;42.694;23.600;2022-09-03T08:03:34;95323.41;;;19.43;100.00
40245;BME280;25963;42.694;23.600;2022-09-03T08:06:04;95333.84;;;19.39;100.00
40245;BME280;25963;42.694;23.600;2022-09-03T08:08:30;95316.44;;;19.63;100.00
40245;BME280;25963;42.694;23.600;2022-09-03T08:11:08;95326.31;;;19.93;100.00
40245;BME280;25963;42.694;23.600;2022-09-03T08:13:39;95329.19;;;20.12;100.00
40245;BME280;25963;42.694;23.600;2022-09-03T08:16:08;95331.03;;;20.21;100.00
40245;BME280;25963;42.694;23.600;2022-09-03T08:18:35;95335.53;;;20.31;100.00
40245;BME280;25963;42.694;23.600;2022-09-03T08:21:08;95329.41;;;20.25;100.00
40245;BME280;25963;42.694;23.600;2022-09-03T08:23:42;95329.13;;;20.27;100.00
40245;BME280;25963;42.694;23.600;2022-09-03T08:26:08;95330.16;;;20.36;100.00
40245;BME280;25963;42.694;23.600;2022-09-03T08:28:35;95328.56;;;20.35;100.00
40245;BME280;25963;42.694;23.600;2022-09-03T08:31:10;95334.38;;;20.58;100.00
40245;BME280;25963;42.694;23.600;2022-09-03T08:33:41;95338.66;;;20.59;100.00
40245;BME280;25963;42.694;23.600;2022-09-03T08:36:27;95335.38;;;20.72;100.00
40245;BME280;25963;42.694;23.600;2022-09-03T08:38:54;95335.56;;;20.86;100.00
40245;BME280;25963;42.694;23.600;2022-09-03T08:54:46;95328.53;;;21.29;100.00
40245;BME280;25963;42.694;23.600;2022-09-03T08:57:15;95331.38;;;21.48;100.00
40245;BME280;25963;42.694;23.600;2022-09-03T08:59:43;95325.53;;;21.70;100.00
40245;BME280;25963;42.694;23.600;2022-09-03T09:05:04;95333.56;;;21.99;100.00
40245;BME280;25963;42.694;23.600;2022-09-03T09:07:53;95337.31;;;21.98;100.00
40245;BME280;25963;42.694;23.600;2022-09-03T09:10:39;95329.28;;;22.22;100.00
40245;BME280;25963;42.694;23.600;2022-09-03T09:13:28;95333.91;;;22.65;100.00
40245;BME280;25963;42.694;23.600;2022-09-03T09:19:04;95329.63;;;22.83;96.27
40245;BME280;25963;42.694;23.600;2022-09-03T09:21:41;95333.06;;;23.07;96.63
40245;BME280;25963;42.694;23.600;2022-09-03T09:24:25;95333.41;;;23.19;94.11
40245;BME280;25963;42.694;23.600;2022-09-03T09:26:59;95323.97;;;23.68;100.00
40245;BME280;25963;42.694;23.600;2022-09-03T09:29:30;95325.34;;;23.52;87.28
40245;BME280;25963;42.694;23.600;2022-09-03T09:31:57;95328.50;;;23.73;93.75
40245;BME280;25963;42.694;23.600;2022-09-03T09:34:23;95334.16;;;23.39;91.60
40245;BME280;25963;42.694;23.600;2022-09-03T09:36:54;95332.22;;;23.77;91.15
40245;BME280;25963;42.694;23.600;2022-09-03T09:39:20;95328.03;;;23.85;94.59
40245;BME280;25963;42.694;23.600;2022-09-03T09:42:07;95330.81;;;23.80;90.92
40245;BME280;25963;42.694;23.600;2022-09-03T09:44:39;95327.25;;;23.52;90.97
40245;BME280;25963;42.694;23.600;2022-09-03T09:47:14;95323.72;;;23.37;91.83
40245;BME280;25963;42.694;23.600;2022-09-03T09:52:19;95324.56;;;23.65;91.45
40245;BME280;25963;42.694;23.600;2022-09-03T09:54:50;95322.13;;;23.83;93.69
40245;BME280;25963;42.694;23.600;2022-09-03T09:57:21;95332.44;;;23.62;91.77
40245;BME280;25963;42.694;23.600;2022-09-03T09:59:47;95340.00;;;23.27;89.47
40245;BME280;25963;42.694;23.600;2022-09-03T10:02:26;95331.38;;;23.11;96.25
40245;BME280;25963;42.694;23.600;2022-09-03T10:05:41;95338.28;;;23.36;91.33
40245;BME280;25963;42.694;23.600;2022-09-03T10:07:42;95342.69;;;23.46;92.53
40245;BME280;25963;42.694;23.600;2022-09-03T10:10:19;95342.88;;;23.50;93.49
40245;BME280;25963;42.694;23.600;2022-09-03T10:16:14;95335.94;;;24.09;94.53
40245;BME280;25963;42.694;23.600;2022-09-03T10:22:06;95338.38;;;23.78;91.24
40245;BME280;25963;42.694;23.600;2022-09-03T10:27:07;95330.56;;;24.36;93.71
40245;BME280;25963;42.694;23.600;2022-09-03T10:29:37;95326.56;;;24.34;89.90
40245;BME280;25963;42.694;23.600;2022-09-03T10:35:30;95331.06;;;24.52;83.66
40245;BME280;25963;42.694;23.600;2022-09-03T10:40:39;95324.00;;;24.93;87.19
40245;BME280;25963;42.694;23.600;2022-09-03T10:46:28;95321.94;;;25.57;82.35
40245;BME280;25963;42.694;23.600;2022-09-03T10:51:59;95320.56;;;25.37;81.69
40245;BME280;25963;42.694;23.600;2022-09-03T10:54:51;95316.16;;;25.19;80.15
40245;BME280;25963;42.694;23.600;2022-09-03T10:57:48;95317.38;;;25.58;82.79
40245;BME280;25963;42.694;23.600;2022-09-03T11:00:16;95321.94;;;25.57;82.77
40245;BME280;25963;42.694;23.600;2022-09-03T11:08:35;95316.97;;;25.73;81.26
40245;BME280;25963;42.694;23.600;2022-09-03T11:11:16;95315.16;;;26.22;82.51
40245;BME280;25963;42.694;23.600;2022-09-03T11:13:54;95312.81;;;26.47;88.45
40245;BME280;25963;42.694;23.600;2022-09-03T11:16:29;95321.38;;;26.31;74.28
40245;BME280;25963;42.694;23.600;2022-09-03T11:19:02;95313.91;;;26.37;81.33
40245;BME280;25963;42.694;23.600;2022-09-03T11:21:29;95318.34;;;26.24;75.19
40245;BME280;25963;42.694;23.600;2022-09-03T11:24:21;95316.38;;;26.56;82.50
40245;BME280;25963;42.694;23.600;2022-09-03T11:26:56;95319.09;;;26.56;71.59
40245;BME280;25963;42.694;23.600;2022-09-03T11:32:14;95311.06;;;26.42;76.98
40245;BME280;25963;42.694;23.600;2022-09-03T11:34:48;95313.03;;;26.59;88.16
40245;BME280;25963;42.694;23.600;2022-09-03T11:39:51;95314.81;;;26.63;83.33
40245;BME280;25963;42.694;23.600;2022-09-03T11:42:30;95308.94;;;26.88;78.17
40245;BME280;25963;42.694;23.600;2022-09-03T11:45:10;95312.25;;;26.67;75.55
40245;BME280;25963;42.694;23.600;2022-09-03T11:47:40;95303.34;;;26.67;74.67
40245;BME280;25963;42.694;23.600;2022-09-03T11:50:22;95308.25;;;26.56;76.64
40245;BME280;25963;42.694;23.600;2022-09-03T11:52:52;95307.00;;;26.71;75.67
40245;BME280;25963;42.694;23.600;2022-09-03T11:56:00;95307.69;;;27.11;74.93
40245;BME280;25963;42.694;23.600;2022-09-03T11:58:39;95307.03;;;26.88;68.57
40245;BME280;25963;42.694;23.600;2022-09-03T12:01:15;95309.75;;;27.05;70.76
40245;BME280;25963;42.694;23.600;2022-09-03T12:03:52;95305.09;;;27.58;72.59
40245;BME280;25963;42.694;23.600;2022-09-03T12:15:13;95302.50;;;26.00;69.26
40245;BME280;25963;42.694;23.600;2022-09-03T12:21:00;95302.41;;;26.89;71.00
40245;BME280;25963;42.694;23.600;2022-09-03T12:23:38;95297.66;;;26.94;70.16
40245;BME280;25963;42.694;23.600;2022-09-03T12:26:08;95294.59;;;27.13;71.63
40245;BME280;25963;42.694;23.600;2022-09-03T12:28:42;95280.00;;;27.23;69.57
40245;BME280;25963;42.694;23.600;2022-09-03T12:31:22;95280.78;;;27.32;71.58
40245;BME280;25963;42.694;23.600;2022-09-03T12:33:55;95278.56;;;27.25;68.20
40245;BME280;25963;42.694;23.600;2022-09-03T12:36:23;95278.66;;;27.55;69.86
40245;BME280;25963;42.694;23.600;2022-09-03T12:38:49;95282.94;;;27.73;69.93
40245;BME280;25963;42.694;23.600;2022-09-03T12:41:28;95289.69;;;27.33;64.97
40245;BME280;25963;42.694;23.600;2022-09-03T12:43:59;95282.84;;;26.92;64.68
40245;BME280;25963;42.694;23.600;2022-09-03T12:46:27;95293.19;;;26.90;67.45
40245;BME280;25963;42.694;23.600;2022-09-03T12:48:54;95287.16;;;26.84;70.57
40245;BME280;25963;42.694;23.600;2022-09-03T12:51:22;95284.47;;;26.35;66.56
40245;BME280;25963;42.694;23.600;2022-09-03T12:53:50;95284.91;;;26.20;67.25
40245;BME280;25963;42.694;23.600;2022-09-03T12:56:17;95281.75;;;26.18;67.75
40245;BME280;25963;42.694;23.600;2022-09-03T12:58:54;95288.03;;;26.05;70.16
40245;BME280;25963;42.694;23.600;2022-09-03T13:01:28;95274.84;;;25.72;69.65
40245;BME280;25963;42.694;23.600;2022-09-03T13:04:29;95269.81;;;25.79;76.55
40245;BME280;25963;42.694;23.600;2022-09-03T13:07:11;95271.06;;;25.73;68.07
40245;BME280;25963;42.694;23.600;2022-09-03T13:09:40;95264.84;;;26.04;74.60
40245;BME280;25963;42.694;23.600;2022-09-03T13:12:19;95261.31;;;25.94;71.63
40245;BME280;25963;42.694;23.600;2022-09-03T13:14:47;95258.69;;;26.29;69.68
40245;BME280;25963;42.694;23.600;2022-09-03T13:17:35;95260.59;;;26.29;69.96
40245;BME280;25963;42.694;23.600;2022-09-03T13:20:42;95249.53;;;26.56;72.51
40245;BME280;25963;42.694;23.600;2022-09-03T13:38:04;95253.16;;;25.10;72.13
40245;BME280;25963;42.694;23.600;2022-09-03T13:43:22;95228.22;;;25.04;75.17
40245;BME280;25963;42.694;23.600;2022-09-03T13:46:05;95243.72;;;24.76;74.53
40245;BME280;25963;42.694;23.600;2022-09-03T13:48:37;95231.19;;;25.16;76.14
40245;BME280;25963;42.694;23.600;2022-09-03T13:51:46;95242.63;;;24.99;75.43
40245;BME280;25963;42.694;23.600;2022-09-03T13:54:27;95235.28;;;25.14;72.69
40245;BME280;25963;42.694;23.600;2022-09-03T14:00:07;95230.13;;;25.57;74.30
40245;BME280;25963;42.694;23.600;2022-09-03T14:02:54;95242.72;;;25.62;71.89
40245;BME280;25963;42.694;23.600;2022-09-03T14:07:53;95239.13;;;25.44;73.07
40245;BME280;25963;42.694;23.600;2022-09-03T14:10:36;95243.56;;;25.48;70.59
40245;BME280;25963;42.694;23.600;2022-09-03T14:16:06;95246.59;;;25.47;72.36
40245;BME280;25963;42.694;23.600;2022-09-03T14:18:58;95245.81;;;25.46;72.99
40245;BME280;25963;42.694;23.600;2022-09-03T14:21:39;95241.34;;;24.97;76.47
40245;BME280;25963;42.694;23.600;2022-09-03T14:24:19;95245.19;;;24.82;75.21
40245;BME280;25963;42.694;23.600;2022-09-03T14:27:04;95238.09;;;24.86;75.38
40245;BME280;25963;42.694;23.600;2022-09-03T14:29:33;95245.44;;;24.94;74.71
40245;BME280;25963;42.694;23.600;2022-09-03T14:32:21;95242.00;;;25.02;74.93
40245;BME280;25963;42.694;23.600;2022-09-03T14:40:18;95252.41;;;23.95;77.31
40245;BME280;25963;42.694;23.600;2022-09-03T14:54:32;95250.56;;;24.32;75.02
40245;BME280;25963;42.694;23.600;2022-09-03T15:02:58;95256.38;;;24.39;76.15
40245;BME280;25963;42.694;23.600;2022-09-03T15:08:27;95252.19;;;24.33;73.47
40245;BME280;25963;42.694;23.600;2022-09-03T15:11:00;95261.28;;;24.09;76.10
40245;BME280;25963;42.694;23.600;2022-09-03T15:13:32;95252.38;;;24.23;76.11
40245;BME280;25963;42.694;23.600;2022-09-03T15:17:16;95264.19;;;23.99;77.06
40245;BME280;25963;42.694;23.600;2022-09-03T15:24:57;95266.88;;;23.39;76.68
40245;BME280;25963;42.694;23.600;2022-09-03T15:27:37;95270.22;;;23.17;79.31
40245;BME280;25963;42.694;23.600;2022-09-03T15:30:17;95272.25;;;22.87;81.62
40245;BME280;25963;42.694;23.600;2022-09-03T15:38:39;95283.09;;;22.44;81.37
40245;BME280;25963;42.694;23.600;2022-09-03T15:41:33;95283.59;;;22.46;81.74
40245;BME280;25963;42.694;23.600;2022-09-03T15:44:00;95281.50;;;22.62;82.14
40245;BME280;25963;42.694;23.600;2022-09-03T15:52:31;95287.97;;;22.18;83.64
40245;BME280;25963;42.694;23.600;2022-09-03T15:55:13;95289.44;;;22.05;83.94
40245;BME280;25963;42.694;23.600;2022-09-03T16:00:17;95290.03;;;21.78;85.31
40245;BME280;25963;42.694;23.600;2022-09-03T16:02:53;95288.22;;;21.93;84.80
40245;BME280;25963;42.694;23.600;2022-09-03T16:05:39;95293.28;;;21.75;85.68
40245;BME280;25963;42.694;23.600;2022-09-03T16:11:11;95290.59;;;21.12;88.18
40245;BME280;25963;42.694;23.600;2022-09-03T16:14:02;95294.31;;;21.16;88.51
40245;BME280;25963;42.694;23.600;2022-09-03T16:16:53;95292.06;;;21.28;88.44
40245;BME280;25963;42.694;23.600;2022-09-03T16:19:36;95299.03;;;20.95;90.11
40245;BME280;25963;42.694;23.600;2022-09-03T16:25:08;95301.84;;;20.74;90.88